sensor_id;sensor_type;location;lat;lon;timestamp;P1;durP1;ratioP1;P2;durP2;ratioP2
60885;SDS011;46736;41.654;-8.438;2022-08-01T00:00:43;14.85;;;11.02;;
60885;SDS011;46736;41.654;-8.438;2022-08-01T00:02:44;10.52;;;9.23;;
60885;SDS011;46736;41.654;-8.438;2022-08-01T00:04:44;12.13;;;10.65;;
60885;SDS011;46736;41.654;-8.438;2022-08-01T00:06:45;14.43;;;10.07;;
60885;SDS011;46736;41.654;-8.438;2022-08-01T00:08:46;9.98;;;9.18;;
60885;SDS011;46736;41.654;-8.438;2022-08-01T00:10:46;12.55;;;9.93;;
60885;SDS011;46736;41.654;-8.438;2022-08-01T00:20:36;17.15;;;10.38;;
60885;SDS011;46736;41.654;-8.438;2022-08-01T00:22:37;21.73;;;9.43;;
60885;SDS011;46736;41.654;-8.438;2022-08-01T00:24:38;12.38;;;10.85;;
60885;SDS011;46736;41.654;-8.438;2022-08-01T00:26:39;10.35;;;9.45;;
60885;SDS011;46736;41.654;-8.438;2022-08-01T00:28:40;12.40;;;8.65;;
60885;SDS011;46736;41.654;-8.438;2022-08-01T00:30:41;10.70;;;9.75;;
60885;SDS011;46736;41.654;-8.438;2022-08-01T00:32:42;10.98;;;9.85;;
60885;SDS011;46736;41.654;-8.438;2022-08-01T00:34:43;11.70;;;8.45;;
60885;SDS011;46736;41.654;-8.438;2022-08-01T00:36:43;10.65;;;9.75;;
60885;SDS011;46736;41.654;-8.438;2022-08-01T00:38:44;12.57;;;9.75;;
60885;SDS011;46736;41.654;-8.438;2022-08-01T00:40:45;17.05;;;11.07;;
60885;SDS011;46736;41.654;-8.438;2022-08-01T00:44:56;11.35;;;10.25;;
60885;SDS011;46736;41.654;-8.438;2022-08-01T00:46:57;9.90;;;8.95;;
60885;SDS011;46736;41.654;-8.438;2022-08-01T00:48:58;11.30;;;10.10;;
60885;SDS011;46736;41.654;-8.438;2022-08-01T00:50:59;11.00;;;9.80;;
60885;SDS011;46736;41.654;-8.438;2022-08-01T00:53:00;13.73;;;9.77;;
60885;SDS011;46736;41.654;-8.438;2022-08-01T00:55:02;14.13;;;10.13;;
60885;SDS011;46736;41.654;-8.438;2022-08-01T00:57:04;12.48;;;10.93;;
60885;SDS011;46736;41.654;-8.438;2022-08-01T00:59:05;15.40;;;12.45;;
60885;SDS011;46736;41.654;-8.438;2022-08-01T01:01:06;15.57;;;9.65;;
60885;SDS011;46736;41.654;-8.438;2022-08-01T01:03:07;15.43;;;10.30;;
60885;SDS011;46736;41.654;-8.438;2022-08-01T01:05:08;11.20;;;9.02;;
60885;SDS011;46736;41.654;-8.438;2022-08-01T01:07:12;17.35;;;9.10;;
60885;SDS011;46736;41.654;-8.438;2022-08-01T01:13:38;19.15;;;9.90;;
60885;SDS011;46736;41.654;-8.438;2022-08-01T01:15:46;11.55;;;9.02;;
60885;SDS011;46736;41.654;-8.438;2022-08-01T01:17:57;11.30;;;10.15;;
60885;SDS011;46736;41.654;-8.438;2022-08-01T01:20:03;15.05;;;9.75;;
60885;SDS011;46736;41.654;-8.438;2022-08-01T01:31:28;11.93;;;10.20;;
60885;SDS011;46736;41.654;-8.438;2022-08-01T01:33:32;12.05;;;10.85;;
60885;SDS011;46736;41.654;-8.438;2022-08-01T01:38:09;10.02;;;9.13;;
60885;SDS011;46736;41.654;-8.438;2022-08-01T01:40:14;14.55;;;10.30;;
60885;SDS011;46736;41.654;-8.438;2022-08-01T01:42:17;11.20;;;9.93;;
60885;SDS011;46736;41.654;-8.438;2022-08-01T01:46:53;11.45;;;10.45;;
60885;SDS011;46736;41.654;-8.438;2022-08-01T01:48:56;11.45;;;10.35;;
60885;SDS011;46736;41.654;-8.438;2022-08-01T01:50:58;9.85;;;8.85;;
60885;SDS011;46736;41.654;-8.438;2022-08-01T01:53:01;10.85;;;9.77;;
60885;SDS011;46736;41.654;-8.438;2022-08-01T01:55:06;11.02;;;10.02;;
60885;SDS011;46736;41.654;-8.438;2022-08-01T01:57:09;14.45;;;10.65;;
60885;SDS011;46736;41.654;-8.438;2022-08-01T01:59:12;10.73;;;9.63;;
60885;SDS011;46736;41.654;-8.438;2022-08-01T02:01:13;12.10;;;11.00;;
60885;SDS011;46736;41.654;-8.438;2022-08-01T02:03:16;13.27;;;11.73;;
60885;SDS011;46736;41.654;-8.438;2022-08-01T02:05:19;12.27;;;11.27;;
60885;SDS011;46736;41.654;-8.438;2022-08-01T02:07:23;11.40;;;10.30;;
60885;SDS011;46736;41.654;-8.438;2022-08-01T02:09:26;18.45;;;10.00;;
60885;SDS011;46736;41.654;-8.438;2022-08-01T02:11:28;11.77;;;10.68;;
60885;SDS011;46736;41.654;-8.438;2022-08-01T02:13:30;12.90;;;11.57;;
60885;SDS011;46736;41.654;-8.438;2022-08-01T02:15:33;10.35;;;9.32;;
60885;SDS011;46736;41.654;-8.438;2022-08-01T02:17:40;11.18;;;10.10;;
60885;SDS011;46736;41.654;-8.438;2022-08-01T02:19:44;12.20;;;11.05;;
60885;SDS011;46736;41.654;-8.438;2022-08-01T02:21:51;10.43;;;9.45;;
60885;SDS011;46736;41.654;-8.438;2022-08-01T02:23:58;11.48;;;10.43;;
60885;SDS011;46736;41.654;-8.438;2022-08-01T02:30:15;13.70;;;12.02;;
60885;SDS011;46736;41.654;-8.438;2022-08-01T02:32:23;12.15;;;10.05;;
60885;SDS011;46736;41.654;-8.438;2022-08-01T02:34:27;11.40;;;10.32;;
60885;SDS011;46736;41.654;-8.438;2022-08-01T02:36:33;11.85;;;10.43;;
60885;SDS011;46736;41.654;-8.438;2022-08-01T02:38:37;15.50;;;9.60;;
60885;SDS011;46736;41.654;-8.438;2022-08-01T02:40:43;11.90;;;10.70;;
60885;SDS011;46736;41.654;-8.438;2022-08-01T02:44:50;11.60;;;10.55;;
60885;SDS011;46736;41.654;-8.438;2022-08-01T02:46:54;12.50;;;11.27;;
60885;SDS011;46736;41.654;-8.438;2022-08-01T02:48:58;11.65;;;10.50;;
60885;SDS011;46736;41.654;-8.438;2022-08-01T02:51:02;12.35;;;9.88;;
60885;SDS011;46736;41.654;-8.438;2022-08-01T02:53:04;13.15;;;11.05;;
60885;SDS011;46736;41.654;-8.438;2022-08-01T02:55:11;14.75;;;10.85;;
60885;SDS011;46736;41.654;-8.438;2022-08-01T02:57:13;12.15;;;10.95;;
60885;SDS011;46736;41.654;-8.438;2022-08-01T02:59:18;19.45;;;11.45;;
60885;SDS011;46736;41.654;-8.438;2022-08-01T03:01:21;9.73;;;8.80;;
60885;SDS011;46736;41.654;-8.438;2022-08-01T03:03:22;14.38;;;10.82;;
60885;SDS011;46736;41.654;-8.438;2022-08-01T03:05:24;11.18;;;10.18;;
60885;SDS011;46736;41.654;-8.438;2022-08-01T03:07:26;13.23;;;12.07;;
60885;SDS011;46736;41.654;-8.438;2022-08-01T03:09:30;13.30;;;11.93;;
60885;SDS011;46736;41.654;-8.438;2022-08-01T03:11:34;17.23;;;12.70;;
60885;SDS011;46736;41.654;-8.438;2022-08-01T03:13:38;11.60;;;10.45;;
60885;SDS011;46736;41.654;-8.438;2022-08-01T03:17:52;10.63;;;9.60;;
60885;SDS011;46736;41.654;-8.438;2022-08-01T03:19:57;11.15;;;10.10;;
60885;SDS011;46736;41.654;-8.438;2022-08-01T03:21:59;13.68;;;12.25;;
60885;SDS011;46736;41.654;-8.438;2022-08-01T03:26:39;11.63;;;10.52;;
60885;SDS011;46736;41.654;-8.438;2022-08-01T03:28:42;14.07;;;12.30;;
60885;SDS011;46736;41.654;-8.438;2022-08-01T03:30:46;12.40;;;11.27;;
60885;SDS011;46736;41.654;-8.438;2022-08-01T03:32:47;13.20;;;10.52;;
60885;SDS011;46736;41.654;-8.438;2022-08-01T03:34:48;11.95;;;11.02;;
60885;SDS011;46736;41.654;-8.438;2022-08-01T03:36:51;16.38;;;11.35;;
60885;SDS011;46736;41.654;-8.438;2022-08-01T03:39:02;12.63;;;11.55;;
60885;SDS011;46736;41.654;-8.438;2022-08-01T03:41:09;11.80;;;10.60;;
60885;SDS011;46736;41.654;-8.438;2022-08-01T03:43:18;13.70;;;11.48;;
60885;SDS011;46736;41.654;-8.438;2022-08-01T03:45:36;12.63;;;11.38;;
60885;SDS011;46736;41.654;-8.438;2022-08-01T03:47:42;13.73;;;11.38;;
60885;SDS011;46736;41.654;-8.438;2022-08-01T03:49:44;13.43;;;12.20;;
60885;SDS011;46736;41.654;-8.438;2022-08-01T03:54:11;11.40;;;10.40;;
60885;SDS011;46736;41.654;-8.438;2022-08-01T03:56:16;15.60;;;11.35;;
60885;SDS011;46736;41.654;-8.438;2022-08-01T03:58:20;13.18;;;12.00;;
60885;SDS011;46736;41.654;-8.438;2022-08-01T04:00:21;14.45;;;12.18;;
60885;SDS011;46736;41.654;-8.438;2022-08-01T04:02:22;12.73;;;11.55;;
60885;SDS011;46736;41.654;-8.438;2022-08-01T04:04:23;14.70;;;11.25;;
60885;SDS011;46736;41.654;-8.438;2022-08-01T04:06:24;12.52;;;11.27;;
60885;SDS011;46736;41.654;-8.438;2022-08-01T04:10:57;16.25;;;12.60;;
60885;SDS011;46736;41.654;-8.438;2022-08-01T04:12:58;13.77;;;11.98;;
60885;SDS011;46736;41.654;-8.438;2022-08-01T04:14:59;13.10;;;11.90;;
60885;SDS011;46736;41.654;-8.438;2022-08-01T04:17:00;13.63;;;12.38;;
60885;SDS011;46736;41.654;-8.438;2022-08-01T04:19:01;11.70;;;10.70;;
60885;SDS011;46736;41.654;-8.438;2022-08-01T04:21:02;9.98;;;9.07;;
60885;SDS011;46736;41.654;-8.438;2022-08-01T04:23:03;13.60;;;11.93;;
60885;SDS011;46736;41.654;-8.438;2022-08-01T04:25:04;12.68;;;10.77;;
60885;SDS011;46736;41.654;-8.438;2022-08-01T04:27:12;14.45;;;12.00;;
60885;SDS011;46736;41.654;-8.438;2022-08-01T04:29:15;18.17;;;11.65;;
60885;SDS011;46736;41.654;-8.438;2022-08-01T04:31:19;14.93;;;10.77;;
60885;SDS011;46736;41.654;-8.438;2022-08-01T04:35:31;12.43;;;10.90;;
60885;SDS011;46736;41.654;-8.438;2022-08-01T04:53:15;15.38;;;13.82;;
60885;SDS011;46736;41.654;-8.438;2022-08-01T05:28:39;11.95;;;10.70;;
60885;SDS011;46736;41.654;-8.438;2022-08-01T05:56:03;12.88;;;11.68;;
60885;SDS011;46736;41.654;-8.438;2022-08-01T05:58:04;13.88;;;12.15;;
60885;SDS011;46736;41.654;-8.438;2022-08-01T06:00:04;12.13;;;10.82;;
60885;SDS011;46736;41.654;-8.438;2022-08-01T06:02:12;16.05;;;13.15;;
60885;SDS011;46736;41.654;-8.438;2022-08-01T06:04:12;15.88;;;12.35;;
60885;SDS011;46736;41.654;-8.438;2022-08-01T06:06:13;13.00;;;11.75;;
60885;SDS011;46736;41.654;-8.438;2022-08-01T06:08:15;15.32;;;12.20;;
60885;SDS011;46736;41.654;-8.438;2022-08-01T06:10:15;24.73;;;12.75;;
60885;SDS011;46736;41.654;-8.438;2022-08-01T06:12:16;14.27;;;12.80;;
60885;SDS011;46736;41.654;-8.438;2022-08-01T06:14:17;19.75;;;17.85;;
60885;SDS011;46736;41.654;-8.438;2022-08-01T06:16:17;19.10;;;17.25;;
60885;SDS011;46736;41.654;-8.438;2022-08-01T06:18:18;18.10;;;16.35;;
60885;SDS011;46736;41.654;-8.438;2022-08-01T06:20:19;18.95;;;16.60;;
60885;SDS011;46736;41.654;-8.438;2022-08-01T06:22:20;17.38;;;15.68;;
60885;SDS011;46736;41.654;-8.438;2022-08-01T06:24:21;15.63;;;14.13;;
60885;SDS011;46736;41.654;-8.438;2022-08-01T06:26:25;17.95;;;16.50;;
60885;SDS011;46736;41.654;-8.438;2022-08-01T06:28:26;19.90;;;13.27;;
60885;SDS011;46736;41.654;-8.438;2022-08-01T06:30:27;15.77;;;13.85;;
60885;SDS011;46736;41.654;-8.438;2022-08-01T06:32:28;13.13;;;11.73;;
60885;SDS011;46736;41.654;-8.438;2022-08-01T06:34:29;18.08;;;14.07;;
60885;SDS011;46736;41.654;-8.438;2022-08-01T06:36:30;13.55;;;12.32;;
60885;SDS011;46736;41.654;-8.438;2022-08-01T06:38:31;13.70;;;12.48;;
60885;SDS011;46736;41.654;-8.438;2022-08-01T06:40:31;13.93;;;12.63;;
60885;SDS011;46736;41.654;-8.438;2022-08-01T06:42:32;16.83;;;12.18;;
60885;SDS011;46736;41.654;-8.438;2022-08-01T06:44:35;14.23;;;12.35;;
60885;SDS011;46736;41.654;-8.438;2022-08-01T06:46:36;14.35;;;12.30;;
60885;SDS011;46736;41.654;-8.438;2022-08-01T06:48:37;14.40;;;12.18;;
60885;SDS011;46736;41.654;-8.438;2022-08-01T06:50:39;21.98;;;12.68;;
60885;SDS011;46736;41.654;-8.438;2022-08-01T06:52:41;14.85;;;13.40;;
60885;SDS011;46736;41.654;-8.438;2022-08-01T06:54:41;13.25;;;12.02;;
60885;SDS011;46736;41.654;-8.438;2022-08-01T06:56:42;15.25;;;12.90;;
60885;SDS011;46736;41.654;-8.438;2022-08-01T06:58:43;14.23;;;12.93;;
60885;SDS011;46736;41.654;-8.438;2022-08-01T07:00:43;16.60;;;13.35;;
60885;SDS011;46736;41.654;-8.438;2022-08-01T07:02:44;15.88;;;13.40;;
60885;SDS011;46736;41.654;-8.438;2022-08-01T07:04:45;15.25;;;13.35;;
60885;SDS011;46736;41.654;-8.438;2022-08-01T07:06:46;13.93;;;12.57;;
60885;SDS011;46736;41.654;-8.438;2022-08-01T07:08:47;13.25;;;11.98;;
60885;SDS011;46736;41.654;-8.438;2022-08-01T07:10:47;25.45;;;14.90;;
60885;SDS011;46736;41.654;-8.438;2022-08-01T07:12:48;15.55;;;13.02;;
60885;SDS011;46736;41.654;-8.438;2022-08-01T07:14:49;11.88;;;10.73;;
60885;SDS011;46736;41.654;-8.438;2022-08-01T07:16:50;14.40;;;12.10;;
60885;SDS011;46736;41.654;-8.438;2022-08-01T07:18:51;13.40;;;11.65;;
60885;SDS011;46736;41.654;-8.438;2022-08-01T07:20:55;13.40;;;12.18;;
60885;SDS011;46736;41.654;-8.438;2022-08-01T07:22:55;15.70;;;12.77;;
60885;SDS011;46736;41.654;-8.438;2022-08-01T07:24:56;19.58;;;11.88;;
60885;SDS011;46736;41.654;-8.438;2022-08-01T07:26:57;22.48;;;11.73;;
60885;SDS011;46736;41.654;-8.438;2022-08-01T07:28:57;15.02;;;13.60;;
60885;SDS011;46736;41.654;-8.438;2022-08-01T07:30:58;13.65;;;12.35;;
60885;SDS011;46736;41.654;-8.438;2022-08-01T07:32:59;18.70;;;14.90;;
60885;SDS011;46736;41.654;-8.438;2022-08-01T07:35:01;15.52;;;13.82;;
60885;SDS011;46736;41.654;-8.438;2022-08-01T07:37:03;14.23;;;12.88;;
60885;SDS011;46736;41.654;-8.438;2022-08-01T07:41:13;31.10;;;17.65;;
60885;SDS011;46736;41.654;-8.438;2022-08-01T07:43:15;16.05;;;14.07;;
60885;SDS011;46736;41.654;-8.438;2022-08-01T07:45:15;20.75;;;13.43;;
60885;SDS011;46736;41.654;-8.438;2022-08-01T07:47:25;21.42;;;14.82;;
60885;SDS011;46736;41.654;-8.438;2022-08-01T07:49:28;14.98;;;13.43;;
60885;SDS011;46736;41.654;-8.438;2022-08-01T07:51:29;14.57;;;12.95;;
60885;SDS011;46736;41.654;-8.438;2022-08-01T07:53:30;14.68;;;13.38;;
60885;SDS011;46736;41.654;-8.438;2022-08-01T07:55:30;21.40;;;12.60;;
60885;SDS011;46736;41.654;-8.438;2022-08-01T07:57:31;18.15;;;14.77;;
60885;SDS011;46736;41.654;-8.438;2022-08-01T07:59:32;19.20;;;13.25;;
60885;SDS011;46736;41.654;-8.438;2022-08-01T08:01:33;31.42;;;15.20;;
60885;SDS011;46736;41.654;-8.438;2022-08-01T08:03:54;18.10;;;12.55;;
60885;SDS011;46736;41.654;-8.438;2022-08-01T08:05:55;16.00;;;13.25;;
60885;SDS011;46736;41.654;-8.438;2022-08-01T08:07:56;12.68;;;9.02;;
60885;SDS011;46736;41.654;-8.438;2022-08-01T08:25:18;8.40;;;7.45;;
60885;SDS011;46736;41.654;-8.438;2022-08-01T08:27:19;9.93;;;8.85;;
60885;SDS011;46736;41.654;-8.438;2022-08-01T08:29:20;9.18;;;8.15;;
60885;SDS011;46736;41.654;-8.438;2022-08-01T08:31:22;12.55;;;8.57;;
60885;SDS011;46736;41.654;-8.438;2022-08-01T08:33:23;16.17;;;10.80;;
60885;SDS011;46736;41.654;-8.438;2022-08-01T08:35:24;10.13;;;9.18;;
60885;SDS011;46736;41.654;-8.438;2022-08-01T08:37:24;10.13;;;9.10;;
60885;SDS011;46736;41.654;-8.438;2022-08-01T08:39:34;14.90;;;7.40;;
60885;SDS011;46736;41.654;-8.438;2022-08-01T08:41:34;9.65;;;8.48;;
60885;SDS011;46736;41.654;-8.438;2022-08-01T08:43:36;10.38;;;9.05;;
60885;SDS011;46736;41.654;-8.438;2022-08-01T08:45:37;13.02;;;9.57;;
60885;SDS011;46736;41.654;-8.438;2022-08-01T08:47:38;11.98;;;8.35;;
60885;SDS011;46736;41.654;-8.438;2022-08-01T11:09:23;9.35;;;6.50;;
60885;SDS011;46736;41.654;-8.438;2022-08-01T11:41:09;6.72;;;6.15;;
60885;SDS011;46736;41.654;-8.438;2022-08-01T11:50:57;11.77;;;6.18;;
60885;SDS011;46736;41.654;-8.438;2022-08-01T11:58:12;7.50;;;6.90;;
60885;SDS011;46736;41.654;-8.438;2022-08-01T16:52:05;6.50;;;4.88;;
60885;SDS011;46736;41.654;-8.438;2022-08-01T16:55:54;15.60;;;5.55;;
60885;SDS011;46736;41.654;-8.438;2022-08-01T18:08:52;9.90;;;8.27;;
60885;SDS011;46736;41.654;-8.438;2022-08-01T19:34:47;11.18;;;8.18;;
60885;SDS011;46736;41.654;-8.438;2022-08-01T19:39:59;14.48;;;10.02;;
60885;SDS011;46736;41.654;-8.438;2022-08-01T19:42:01;8.35;;;7.55;;
60885;SDS011;46736;41.654;-8.438;2022-08-01T19:44:04;16.52;;;7.70;;
60885;SDS011;46736;41.654;-8.438;2022-08-01T19:46:07;8.73;;;7.80;;
60885;SDS011;46736;41.654;-8.438;2022-08-01T19:48:08;16.00;;;9.65;;
60885;SDS011;46736;41.654;-8.438;2022-08-01T19:50:09;11.88;;;8.25;;
60885;SDS011;46736;41.654;-8.438;2022-08-01T19:52:12;13.05;;;7.68;;
60885;SDS011;46736;41.654;-8.438;2022-08-01T19:56:22;10.88;;;7.75;;
60885;SDS011;46736;41.654;-8.438;2022-08-01T20:04:09;13.57;;;8.00;;
60885;SDS011;46736;41.654;-8.438;2022-08-01T20:06:12;9.30;;;7.63;;
60885;SDS011;46736;41.654;-8.438;2022-08-01T20:08:12;11.02;;;8.07;;
60885;SDS011;46736;41.654;-8.438;2022-08-01T20:10:14;7.82;;;7.10;;
60885;SDS011;46736;41.654;-8.438;2022-08-01T20:12:19;10.15;;;9.25;;
60885;SDS011;46736;41.654;-8.438;2022-08-01T20:14:22;21.52;;;8.80;;
60885;SDS011;46736;41.654;-8.438;2022-08-01T20:16:26;8.95;;;8.02;;
60885;SDS011;46736;41.654;-8.438;2022-08-01T20:18:28;11.02;;;8.85;;
60885;SDS011;46736;41.654;-8.438;2022-08-01T20:20:29;9.30;;;8.05;;
60885;SDS011;46736;41.654;-8.438;2022-08-01T20:22:32;9.90;;;8.27;;
60885;SDS011;46736;41.654;-8.438;2022-08-01T20:24:36;17.17;;;7.43;;
60885;SDS011;46736;41.654;-8.438;2022-08-01T20:26:39;8.52;;;7.75;;
60885;SDS011;46736;41.654;-8.438;2022-08-01T20:28:40;9.90;;;9.10;;
60885;SDS011;46736;41.654;-8.438;2022-08-01T20:33:14;20.05;;;9.07;;
60885;SDS011;46736;41.654;-8.438;2022-08-01T20:35:16;11.00;;;8.88;;
60885;SDS011;46736;41.654;-8.438;2022-08-01T20:37:16;9.07;;;8.27;;
60885;SDS011;46736;41.654;-8.438;2022-08-01T20:39:20;9.32;;;8.02;;
60885;SDS011;46736;41.654;-8.438;2022-08-01T20:41:23;11.65;;;8.77;;
60885;SDS011;46736;41.654;-8.438;2022-08-01T20:57:48;10.60;;;9.25;;
60885;SDS011;46736;41.654;-8.438;2022-08-01T21:08:02;8.00;;;6.95;;
60885;SDS011;46736;41.654;-8.438;2022-08-01T21:10:07;16.98;;;9.55;;
60885;SDS011;46736;41.654;-8.438;2022-08-01T21:12:12;15.10;;;9.35;;
60885;SDS011;46736;41.654;-8.438;2022-08-01T21:14:21;13.02;;;9.73;;
60885;SDS011;46736;41.654;-8.438;2022-08-01T21:16:34;12.25;;;9.93;;
60885;SDS011;46736;41.654;-8.438;2022-08-01T21:18:57;10.73;;;8.05;;
60885;SDS011;46736;41.654;-8.438;2022-08-01T21:21:11;9.40;;;7.93;;
60885;SDS011;46736;41.654;-8.438;2022-08-01T21:23:20;14.77;;;8.68;;
60885;SDS011;46736;41.654;-8.438;2022-08-01T21:25:25;9.75;;;8.57;;
60885;SDS011;46736;41.654;-8.438;2022-08-01T21:27:30;11.90;;;9.98;;
60885;SDS011;46736;41.654;-8.438;2022-08-01T21:29:34;9.57;;;8.68;;
60885;SDS011;46736;41.654;-8.438;2022-08-01T21:31:37;10.68;;;9.68;;
60885;SDS011;46736;41.654;-8.438;2022-08-01T21:33:39;9.85;;;8.85;;
60885;SDS011;46736;41.654;-8.438;2022-08-01T21:35:40;9.80;;;8.82;;
60885;SDS011;46736;41.654;-8.438;2022-08-01T21:37:41;10.82;;;9.65;;
60885;SDS011;46736;41.654;-8.438;2022-08-01T21:39:43;14.45;;;9.05;;
60885;SDS011;46736;41.654;-8.438;2022-08-01T21:41:45;15.15;;;9.80;;
60885;SDS011;46736;41.654;-8.438;2022-08-01T21:43:46;12.02;;;9.30;;
60885;SDS011;46736;41.654;-8.438;2022-08-01T21:45:48;13.68;;;9.48;;
60885;SDS011;46736;41.654;-8.438;2022-08-01T21:47:50;14.38;;;9.63;;
60885;SDS011;46736;41.654;-8.438;2022-08-01T21:49:52;11.07;;;8.95;;
60885;SDS011;46736;41.654;-8.438;2022-08-01T21:51:56;10.10;;;8.93;;
60885;SDS011;46736;41.654;-8.438;2022-08-01T21:56:39;12.63;;;9.30;;
60885;SDS011;46736;41.654;-8.438;2022-08-01T21:58:57;13.45;;;8.98;;
60885;SDS011;46736;41.654;-8.438;2022-08-01T22:01:18;11.40;;;8.50;;
60885;SDS011;46736;41.654;-8.438;2022-08-01T22:03:23;11.45;;;9.43;;
60885;SDS011;46736;41.654;-8.438;2022-08-01T22:05:26;18.02;;;10.50;;
60885;SDS011;46736;41.654;-8.438;2022-08-01T22:07:29;12.48;;;8.68;;
60885;SDS011;46736;41.654;-8.438;2022-08-01T22:09:35;20.92;;;10.57;;
60885;SDS011;46736;41.654;-8.438;2022-08-01T22:11:37;10.15;;;9.15;;
60885;SDS011;46736;41.654;-8.438;2022-08-01T22:13:39;12.30;;;9.98;;
60885;SDS011;46736;41.654;-8.438;2022-08-01T22:15:41;18.88;;;14.77;;
60885;SDS011;46736;41.654;-8.438;2022-08-01T22:17:42;14.45;;;9.63;;
60885;SDS011;46736;41.654;-8.438;2022-08-01T22:19:46;13.15;;;10.23;;
60885;SDS011;46736;41.654;-8.438;2022-08-01T22:21:48;14.07;;;9.50;;
60885;SDS011;46736;41.654;-8.438;2022-08-01T22:23:50;12.20;;;9.45;;
60885;SDS011;46736;41.654;-8.438;2022-08-01T22:25:52;16.27;;;10.88;;
60885;SDS011;46736;41.654;-8.438;2022-08-01T22:27:54;12.38;;;10.07;;
60885;SDS011;46736;41.654;-8.438;2022-08-01T22:29:55;13.18;;;9.82;;
60885;SDS011;46736;41.654;-8.438;2022-08-01T22:31:59;13.60;;;10.48;;
60885;SDS011;46736;41.654;-8.438;2022-08-01T22:34:00;13.25;;;8.23;;
60885;SDS011;46736;41.654;-8.438;2022-08-01T22:36:01;15.60;;;10.63;;
60885;SDS011;46736;41.654;-8.438;2022-08-01T22:38:03;16.65;;;10.38;;
60885;SDS011;46736;41.654;-8.438;2022-08-01T22:40:05;16.70;;;10.93;;
60885;SDS011;46736;41.654;-8.438;2022-08-01T22:42:08;18.33;;;9.85;;
60885;SDS011;46736;41.654;-8.438;2022-08-01T22:44:10;14.80;;;8.40;;
60885;SDS011;46736;41.654;-8.438;2022-08-01T22:48:35;11.10;;;9.60;;
60885;SDS011;46736;41.654;-8.438;2022-08-01T22:50:45;13.10;;;11.15;;
60885;SDS011;46736;41.654;-8.438;2022-08-01T22:52:54;17.52;;;10.43;;
60885;SDS011;46736;41.654;-8.438;2022-08-01T22:55:04;12.15;;;10.13;;
60885;SDS011;46736;41.654;-8.438;2022-08-01T22:57:10;19.23;;;10.25;;
60885;SDS011;46736;41.654;-8.438;2022-08-01T22:59:19;18.20;;;10.52;;
60885;SDS011;46736;41.654;-8.438;2022-08-01T23:01:23;12.23;;;11.07;;
60885;SDS011;46736;41.654;-8.438;2022-08-01T23:03:32;14.40;;;10.02;;
60885;SDS011;46736;41.654;-8.438;2022-08-01T23:05:36;12.00;;;10.82;;
60885;SDS011;46736;41.654;-8.438;2022-08-01T23:07:45;12.35;;;10.90;;
60885;SDS011;46736;41.654;-8.438;2022-08-01T23:09:53;14.15;;;10.35;;
60885;SDS011;46736;41.654;-8.438;2022-08-01T23:11:56;12.88;;;10.90;;
60885;SDS011;46736;41.654;-8.438;2022-08-01T23:13:58;13.00;;;10.07;;
60885;SDS011;46736;41.654;-8.438;2022-08-01T23:16:02;13.43;;;9.77;;
60885;SDS011;46736;41.654;-8.438;2022-08-01T23:18:03;13.20;;;9.68;;
60885;SDS011;46736;41.654;-8.438;2022-08-01T23:20:05;14.00;;;10.98;;
60885;SDS011;46736;41.654;-8.438;2022-08-01T23:22:06;14.10;;;12.13;;
60885;SDS011;46736;41.654;-8.438;2022-08-01T23:24:09;15.38;;;10.85;;
60885;SDS011;46736;41.654;-8.438;2022-08-01T23:26:10;16.80;;;12.15;;
60885;SDS011;46736;41.654;-8.438;2022-08-01T23:28:14;11.40;;;10.10;;
60885;SDS011;46736;41.654;-8.438;2022-08-01T23:30:15;14.18;;;10.55;;
60885;SDS011;46736;41.654;-8.438;2022-08-01T23:32:16;16.80;;;10.95;;
60885;SDS011;46736;41.654;-8.438;2022-08-01T23:34:18;11.57;;;10.48;;
60885;SDS011;46736;41.654;-8.438;2022-08-01T23:36:19;11.27;;;10.07;;
60885;SDS011;46736;41.654;-8.438;2022-08-01T23:38:20;14.73;;;11.30;;
60885;SDS011;46736;41.654;-8.438;2022-08-01T23:40:21;13.82;;;10.20;;
60885;SDS011;46736;41.654;-8.438;2022-08-01T23:42:22;12.18;;;9.82;;
60885;SDS011;46736;41.654;-8.438;2022-08-01T23:44:22;14.75;;;10.63;;
60885;SDS011;46736;41.654;-8.438;2022-08-01T23:46:23;11.82;;;10.55;;
60885;SDS011;46736;41.654;-8.438;2022-08-01T23:48:24;20.40;;;11.48;;
60885;SDS011;46736;41.654;-8.438;2022-08-01T23:50:24;16.17;;;10.52;;
60885;SDS011;46736;41.654;-8.438;2022-08-01T23:52:26;14.73;;;10.38;;
60885;SDS011;46736;41.654;-8.438;2022-08-01T23:54:28;11.68;;;9.52;;
60885;SDS011;46736;41.654;-8.438;2022-08-01T23:56:28;12.27;;;10.38;;
60885;SDS011;46736;41.654;-8.438;2022-08-01T23:58:29;13.20;;;9.77;;
